createdAt,value
2024-02-07T00:01:34.318Z,94506.53
2024-02-07T00:04:04.736Z,94508.34
2024-02-07T00:06:35.265Z,94511.75
2024-02-07T00:09:03.389Z,94503.69
2024-02-07T00:11:32.758Z,94491.91
2024-02-07T00:14:00.943Z,94503.72
2024-02-07T00:16:29.274Z,94498.06
2024-02-07T00:19:37.565Z,94503.25
2024-02-07T00:22:07.372Z,94503.25
2024-02-07T00:24:35.538Z,94503.56
2024-02-07T00:27:03.992Z,94505.19
2024-02-07T00:29:32.120Z,94502.09
2024-02-07T00:32:00.252Z,94501.44
2024-02-07T00:34:28.822Z,94502.56
2024-02-07T00:36:57.006Z,94504.69
2024-02-07T00:39:26.485Z,94499.63
2024-02-07T00:41:54.699Z,94494.81
2024-02-07T00:45:17.360Z,94495.81
2024-02-07T00:47:46.670Z,94501.63
2024-02-07T00:50:15.028Z,94501.50
2024-02-07T00:52:43.246Z,94497.44
2024-02-07T00:55:12.902Z,94487.72
2024-02-07T00:57:41.919Z,94480.75
2024-02-07T01:00:15.179Z,94479.59
2024-02-07T01:02:43.837Z,94479.94
2024-02-07T01:05:12.324Z,94477.19
2024-02-07T01:07:40.645Z,94478.16
2024-02-07T01:10:09.970Z,94477.34
2024-02-07T01:12:39.841Z,94474.78
2024-02-07T01:15:09.753Z,94487.56
2024-02-07T01:17:38.359Z,94478.63
2024-02-07T01:20:11.326Z,94480.38
2024-02-07T01:22:40.012Z,94478.31
2024-02-07T01:25:08.845Z,94472.19
2024-02-07T01:27:37.775Z,94475.25
2024-02-07T01:30:11.899Z,94470.59
2024-02-07T01:32:42.765Z,94456.97
2024-02-07T01:35:12.304Z,94456.47
2024-02-07T01:37:40.856Z,94457.50
2024-02-07T01:40:11.949Z,94449.88
2024-02-07T01:42:40.821Z,94459.63
2024-02-07T01:45:24.118Z,94450.91
2024-02-07T01:47:53.523Z,94445.09
2024-02-07T01:50:23.091Z,94452.72
2024-02-07T01:52:53.992Z,94448.09
2024-02-07T01:55:23.604Z,94440.00
2024-02-07T01:57:50.919Z,94426.25
2024-02-07T02:00:20.884Z,94440.00
2024-02-07T02:02:50.541Z,94436.75
2024-02-07T02:05:18.957Z,94440.47
2024-02-07T02:07:48.460Z,94446.00
2024-02-07T02:10:17.180Z,94444.38
2024-02-07T02:12:46.094Z,94448.41
2024-02-07T02:15:14.463Z,94452.25
2024-02-07T02:17:44.272Z,94448.06
2024-02-07T02:20:12.910Z,94443.72
2024-02-07T02:22:56.962Z,94444.31
2024-02-07T02:25:56.986Z,94454.50
2024-02-07T02:28:34.639Z,94455.13
2024-02-07T02:31:08.298Z,94455.78
2024-02-07T02:33:38.349Z,94446.38
2024-02-07T02:36:08.336Z,94442.16
2024-02-07T02:38:37.919Z,94443.63
2024-02-07T02:41:09.371Z,94447.72
2024-02-07T02:43:40.727Z,94438.63
2024-02-07T02:46:12.223Z,94431.19
2024-02-07T02:48:41.363Z,94440.75
2024-02-07T02:51:09.704Z,94436.38
2024-02-07T02:53:38.986Z,94434.25
2024-02-07T02:56:07.900Z,94431.31
2024-02-07T02:58:42.865Z,94441.34
2024-02-07T03:01:15.155Z,94433.13
2024-02-07T03:03:54.928Z,94431.00
2024-02-07T03:06:31.191Z,94432.28
2024-02-07T03:09:09.758Z,94437.63
2024-02-07T03:11:38.371Z,94439.03
2024-02-07T03:14:07.535Z,94445.00
2024-02-07T03:16:37.926Z,94445.03
2024-02-07T03:19:06.203Z,94438.06
2024-02-07T03:21:34.495Z,94436.63
2024-02-07T03:24:02.703Z,94440.66
2024-02-07T03:26:30.888Z,94429.47
2024-02-07T03:28:59.664Z,94421.88
2024-02-07T03:31:28.935Z,94435.47
2024-02-07T03:33:58.534Z,94427.22
2024-02-07T03:36:28.069Z,94425.88
2024-02-07T03:38:56.863Z,94420.03
2024-02-07T03:41:25.164Z,94426.84
2024-02-07T03:43:53.657Z,94429.44
2024-02-07T03:46:22.082Z,94425.09
2024-02-07T03:48:50.283Z,94421.59
2024-02-07T03:51:28.377Z,94421.25
2024-02-07T03:53:57.115Z,94420.88
2024-02-07T03:56:25.322Z,94419.97
2024-02-07T03:58:53.776Z,94418.50
2024-02-07T04:01:22.299Z,94429.50
2024-02-07T04:03:50.570Z,94425.50
2024-02-07T04:06:20.649Z,94419.88
2024-02-07T04:08:49.058Z,94416.00
2024-02-07T04:11:17.558Z,94409.59
2024-02-07T04:13:44.847Z,94417.63
2024-02-07T04:16:31.110Z,94408.88
2024-02-07T04:19:16.484Z,94421.44
2024-02-07T04:22:03.780Z,94416.59
2024-02-07T04:24:49.427Z,94419.88
2024-02-07T04:27:34.837Z,94418.59
2024-02-07T04:30:20.814Z,94413.09
2024-02-07T04:33:06.182Z,94420.53
2024-02-07T04:35:51.546Z,94413.69
2024-02-07T04:38:42.077Z,94413.06
2024-02-07T04:41:29.061Z,94405.72
2024-02-07T04:44:14.525Z,94418.16
2024-02-07T04:47:00.316Z,94408.31
2024-02-07T04:49:45.972Z,94401.78
2024-02-07T04:52:31.799Z,94399.97
2024-02-07T04:55:18.717Z,94391.28
2024-02-07T04:58:04.330Z,94395.78
2024-02-07T05:00:49.915Z,94398.31
2024-02-07T05:03:35.454Z,94396.53
2024-02-07T05:06:21.112Z,94395.41
2024-02-07T05:09:06.928Z,94394.66
2024-02-07T05:11:55.065Z,94402.66
2024-02-07T05:14:40.308Z,94391.38
2024-02-07T05:17:11.845Z,94394.19
2024-02-07T05:19:40.408Z,94389.03
2024-02-07T05:22:08.649Z,94379.75
2024-02-07T05:24:36.844Z,94384.59
2024-02-07T05:27:07.836Z,94389.78
2024-02-07T05:29:36.233Z,94397.25
2024-02-07T05:32:04.526Z,94403.56
2024-02-07T05:34:32.877Z,94403.53
2024-02-07T05:37:01.141Z,94414.09
2024-02-07T05:39:32.512Z,94401.03
2024-02-07T05:42:01.290Z,94408.44
2024-02-07T05:44:30.910Z,94408.09
2024-02-07T05:47:02.505Z,94406.09
2024-02-07T05:49:30.862Z,94400.66
2024-02-07T05:52:02.346Z,94394.22
2024-02-07T05:54:31.936Z,94397.84
2024-02-07T05:57:00.374Z,94407.88
2024-02-07T05:59:28.837Z,94408.84
2024-02-07T06:01:58.908Z,94413.56
2024-02-07T06:04:28.470Z,94407.72
2024-02-07T06:06:56.877Z,94400.00
2024-02-07T06:09:25.072Z,94411.66
2024-02-07T06:11:53.424Z,94416.81
2024-02-07T06:14:21.670Z,94411.28
2024-02-07T06:16:50.063Z,94417.78
2024-02-07T06:19:21.068Z,94421.50
2024-02-07T06:21:50.598Z,94416.06
2024-02-07T06:24:19.064Z,94414.66
2024-02-07T06:26:47.320Z,94416.78
2024-02-07T06:29:15.549Z,94409.72
2024-02-07T06:31:43.738Z,94408.53
2024-02-07T06:34:12.078Z,94411.66
2024-02-07T06:36:41.801Z,94420.09
2024-02-07T06:39:10.024Z,94427.78
2024-02-07T06:41:38.470Z,94424.75
2024-02-07T06:44:07.036Z,94425.09
2024-02-07T06:46:35.238Z,94423.22
2024-02-07T06:49:03.570Z,94427.97
2024-02-07T06:51:32.121Z,94425.19
2024-02-07T06:54:02.220Z,94425.22
2024-02-07T06:56:30.409Z,94421.72
2024-02-07T06:58:58.637Z,94425.97
2024-02-07T07:01:29.050Z,94417.47
2024-02-07T07:03:59.056Z,94415.53
2024-02-07T07:06:29.331Z,94421.19
2024-02-07T07:08:57.601Z,94423.75
2024-02-07T07:11:27.272Z,94413.72
2024-02-07T07:13:59.223Z,94421.47
2024-02-07T07:16:29.583Z,94418.88
2024-02-07T07:18:59.225Z,94415.31
2024-02-07T07:21:29.036Z,94420.00
2024-02-07T07:23:57.276Z,94418.88
2024-02-07T07:26:27.291Z,94417.75
2024-02-07T07:28:58.453Z,94416.34
2024-02-07T07:31:27.310Z,94414.72
2024-02-07T07:33:56.546Z,94407.63
2024-02-07T07:36:28.333Z,94417.63
2024-02-07T07:38:57.286Z,94415.22
2024-02-07T07:41:27.016Z,94409.56
2024-02-07T07:43:58.754Z,94404.53
2024-02-07T07:46:27.048Z,94403.91
2024-02-07T07:48:55.269Z,94396.91
2024-02-07T07:51:23.503Z,94402.44
2024-02-07T07:53:51.674Z,94399.81
2024-02-07T07:56:21.331Z,94395.13
2024-02-07T07:58:53.525Z,94397.38
2024-02-07T08:01:24.262Z,94399.97
2024-02-07T08:03:53.439Z,94393.81
2024-02-07T08:06:22.129Z,94388.88
2024-02-07T08:08:50.601Z,94377.72
2024-02-07T08:11:18.800Z,94374.47
2024-02-07T08:13:46.988Z,94378.63
2024-02-07T08:16:16.930Z,94372.34
2024-02-07T08:18:45.729Z,94375.38
2024-02-07T08:21:13.906Z,94367.69
2024-02-07T08:23:42.284Z,94369.63
2024-02-07T08:26:12.226Z,94370.72
2024-02-07T08:28:40.573Z,94361.78
2024-02-07T08:31:08.866Z,94354.41
2024-02-07T08:33:39.077Z,94362.94
2024-02-07T08:36:09.500Z,94352.53
2024-02-07T08:38:38.229Z,94352.88
2024-02-07T08:41:06.606Z,94337.31
2024-02-07T08:43:34.827Z,94342.56
2024-02-07T08:46:03.081Z,94343.56
2024-02-07T08:48:31.325Z,94346.22
2024-02-07T08:51:01.195Z,94343.25
2024-02-07T08:53:29.530Z,94353.41
2024-02-07T08:55:58.851Z,94350.97
2024-02-07T08:58:27.144Z,94347.84
2024-02-07T09:00:55.583Z,94356.09
2024-02-07T09:03:23.714Z,94342.91
2024-02-07T09:05:51.901Z,94349.31
2024-02-07T09:08:21.605Z,94341.75
2024-02-07T09:10:50.098Z,94332.53
2024-02-07T09:13:18.366Z,94329.50
2024-02-07T09:15:46.662Z,94331.69
2024-02-07T09:18:15.199Z,94332.06
2024-02-07T09:20:43.368Z,94321.44
2024-02-07T09:23:11.463Z,94318.66
2024-02-07T09:25:41.177Z,94331.81
2024-02-07T09:28:09.300Z,94331.56
2024-02-07T09:30:37.480Z,94315.75
2024-02-07T09:33:08.073Z,94315.44
2024-02-07T09:35:38.228Z,94311.91
2024-02-07T09:38:06.584Z,94306.31
2024-02-07T09:40:35.045Z,94304.00
2024-02-07T09:43:06.267Z,94304.06
2024-02-07T09:45:36.735Z,94290.31
2024-02-07T09:48:13.848Z,94282.00
2024-02-07T09:50:43.286Z,94277.19
2024-02-07T09:53:15.009Z,94276.63
2024-02-07T09:55:45.027Z,94265.75
2024-02-07T09:58:14.783Z,94264.44
2024-02-07T10:00:43.010Z,94255.28
2024-02-07T10:03:16.196Z,94254.31
2024-02-07T10:05:50.768Z,94240.34
2024-02-07T10:08:19.391Z,94234.94
2024-02-07T10:10:49.929Z,94235.28
2024-02-07T10:13:20.331Z,94238.94
2024-02-07T10:15:50.631Z,94229.94
2024-02-07T10:18:19.076Z,94225.75
2024-02-07T10:20:54.248Z,94222.06
2024-02-07T10:23:22.903Z,94210.72
2024-02-07T10:25:52.843Z,94214.47
2024-02-07T10:28:26.049Z,94206.81
2024-02-07T10:30:59.163Z,94213.59
2024-02-07T10:33:41.223Z,94201.84
2024-02-07T10:36:13.437Z,94203.34
2024-02-07T10:38:42.366Z,94203.00
2024-02-07T10:41:11.392Z,94186.19
2024-02-07T10:43:44.371Z,94183.59
2024-02-07T10:46:16.433Z,94191.03
2024-02-07T10:48:45.531Z,94183.81
2024-02-07T10:51:14.075Z,94185.91
2024-02-07T10:53:42.278Z,94183.44
2024-02-07T10:56:16.363Z,94160.56
2024-02-07T10:58:47.083Z,94152.41
2024-02-07T11:01:16.148Z,94150.22
2024-02-07T11:03:47.677Z,94163.50
2024-02-07T11:06:16.257Z,94150.22
2024-02-07T11:08:44.966Z,94149.28
2024-02-07T11:11:16.264Z,94138.03
2024-02-07T11:13:46.964Z,94139.34
2024-02-07T11:16:15.268Z,94142.09
2024-02-07T11:18:43.647Z,94134.84
2024-02-07T11:21:14.799Z,94119.63
2024-02-07T11:23:46.510Z,94126.91
2024-02-07T11:26:17.414Z,94124.03
2024-02-07T11:28:48.356Z,94110.34
2024-02-07T11:31:18.212Z,94109.47
2024-02-07T11:33:53.279Z,94105.09
2024-02-07T11:36:22.886Z,94095.34
2024-02-07T11:38:55.959Z,94095.09
2024-02-07T11:41:26.301Z,94093.22
2024-02-07T11:44:06.317Z,94089.25
2024-02-07T11:46:34.650Z,94082.09
2024-02-07T11:49:03.379Z,94089.38
2024-02-07T11:51:35.651Z,94075.53
2024-02-07T11:54:08.654Z,94082.84
2024-02-07T11:56:36.881Z,94059.25
2024-02-07T11:59:07.493Z,94058.28
2024-02-07T12:01:37.581Z,94067.22
2024-02-07T12:04:06.224Z,94044.31
2024-02-07T12:06:34.731Z,94044.72
2024-02-07T12:09:04.004Z,94037.53
2024-02-07T12:11:32.591Z,94043.78
2024-02-07T12:14:00.814Z,94044.69
2024-02-07T12:16:31.295Z,94021.28
2024-02-07T12:18:59.883Z,94021.88
2024-02-07T12:21:28.192Z,94020.16
2024-02-07T12:23:56.675Z,94014.47
2024-02-07T12:26:27.027Z,94012.00
2024-02-07T12:28:58.518Z,94025.53
2024-02-07T12:31:27.330Z,94021.53
2024-02-07T12:33:57.842Z,94009.53
2024-02-07T12:36:26.054Z,94014.50
2024-02-07T12:38:54.152Z,94011.13
2024-02-07T12:41:22.425Z,94021.03
2024-02-07T12:43:51.016Z,94017.84
2024-02-07T12:46:21.156Z,94011.22
2024-02-07T12:48:49.740Z,94001.47
2024-02-07T12:51:19.416Z,94003.72
2024-02-07T12:53:51.837Z,94009.41
2024-02-07T12:56:33.535Z,94022.59
2024-02-07T12:59:02.155Z,94010.91
2024-02-07T13:01:30.473Z,94001.31
2024-02-07T13:03:58.880Z,94001.53
2024-02-07T13:06:28.777Z,93996.00
2024-02-07T13:08:56.904Z,93985.06
2024-02-07T13:11:25.201Z,94000.03
2024-02-07T13:13:53.539Z,93996.72
2024-02-07T13:16:24.659Z,93981.41
2024-02-07T13:18:54.651Z,93995.75
2024-02-07T13:21:23.263Z,93991.31
2024-02-07T13:23:53.137Z,93990.06
2024-02-07T13:26:23.397Z,93991.06
2024-02-07T13:28:51.882Z,93989.09
2024-02-07T13:31:20.633Z,93994.19
2024-02-07T13:33:49.689Z,93986.81
2024-02-07T13:36:17.922Z,93986.28
2024-02-07T13:38:46.219Z,93981.63
2024-02-07T13:41:20.554Z,93981.75
2024-02-07T13:43:49.179Z,93983.63
2024-02-07T13:46:17.620Z,93985.00
2024-02-07T13:48:46.151Z,93990.88
2024-02-07T13:51:14.353Z,93991.22
2024-02-07T13:53:42.900Z,93991.91
2024-02-07T13:56:11.103Z,93995.34
2024-02-07T13:58:41.378Z,93993.38
2024-02-07T14:01:10.662Z,93988.31
2024-02-07T14:03:38.918Z,93981.22
2024-02-07T14:06:09.249Z,93984.63
2024-02-07T14:08:37.642Z,93992.88
2024-02-07T14:11:06.482Z,93990.81
2024-02-07T14:13:35.074Z,93982.03
2024-02-07T14:16:04.911Z,93981.72
2024-02-07T14:18:33.194Z,93966.19
2024-02-07T14:21:01.365Z,93975.03
2024-02-07T14:23:29.658Z,93972.09
2024-02-07T14:25:58.378Z,93978.66
2024-02-07T14:28:29.139Z,93983.84
2024-02-07T14:30:57.448Z,93983.84
2024-02-07T14:33:27.226Z,93993.28
2024-02-07T14:35:55.546Z,93982.28
2024-02-07T14:38:27.521Z,93984.06
2024-02-07T14:40:56.366Z,93987.16
2024-02-07T14:43:24.596Z,93983.63
2024-02-07T14:45:52.929Z,93972.78
2024-02-07T14:48:21.399Z,93985.69
2024-02-07T14:50:51.127Z,93975.78
2024-02-07T14:53:19.521Z,93975.53
2024-02-07T14:55:47.757Z,93976.09
2024-02-07T14:58:16.128Z,93981.56
2024-02-07T15:00:44.395Z,93982.53
2024-02-07T15:03:14.120Z,93974.28
2024-02-07T15:05:42.470Z,93975.22
2024-02-07T15:08:13.295Z,93980.00
2024-02-07T15:10:41.450Z,93972.22
2024-02-07T15:13:09.693Z,93967.22
2024-02-07T15:15:40.815Z,93967.50
2024-02-07T15:18:11.415Z,93975.66
2024-02-07T15:20:41.804Z,93969.25
2024-02-07T15:23:09.909Z,93969.06
2024-02-07T15:25:40.173Z,93968.56
2024-02-07T15:28:09.689Z,93963.03
2024-02-07T15:30:38.237Z,93976.94
2024-02-07T15:33:07.970Z,93971.78
2024-02-07T15:35:36.098Z,93978.78
2024-02-07T15:38:04.429Z,93971.16
2024-02-07T15:40:32.482Z,93980.03
2024-02-07T15:43:02.703Z,93978.88
2024-02-07T15:45:30.771Z,93977.88
2024-02-07T15:47:59.028Z,93980.94
2024-02-07T15:50:28.289Z,93986.75
2024-02-07T15:52:58.095Z,93974.09
2024-02-07T15:55:26.451Z,93982.13
2024-02-07T15:57:54.841Z,93988.53
2024-02-07T16:00:24.671Z,93981.75
2024-02-07T16:02:52.925Z,93995.81
2024-02-07T16:05:23.885Z,93991.78
2024-02-07T16:07:52.306Z,94001.88
2024-02-07T16:10:20.639Z,93994.63
2024-02-07T16:12:52.609Z,93990.44
2024-02-07T16:15:20.717Z,93995.00
2024-02-07T16:17:50.191Z,94010.28
2024-02-07T16:20:19.094Z,94004.50
2024-02-07T16:22:47.477Z,94012.72
2024-02-07T16:25:15.819Z,94015.94
2024-02-07T16:27:43.979Z,94014.72
2024-02-07T16:30:12.632Z,94017.13
2024-02-07T16:32:43.051Z,94019.94
2024-02-07T16:35:14.411Z,94003.88
2024-02-07T16:37:43.010Z,94011.31
2024-02-07T16:40:11.877Z,94012.28
2024-02-07T16:42:40.419Z,94016.72
2024-02-07T16:45:10.000Z,94014.09
2024-02-07T16:47:39.055Z,94013.09
2024-02-07T16:50:08.276Z,94017.94
2024-02-07T16:52:38.055Z,94010.31
2024-02-07T16:55:07.416Z,94021.75
2024-02-07T16:57:35.746Z,94023.75
2024-02-07T17:00:04.761Z,94023.53
2024-02-07T17:02:32.810Z,94023.53
2024-02-07T17:05:00.865Z,94026.34
2024-02-07T17:07:28.864Z,94038.56
2024-02-07T17:09:58.284Z,94025.38
2024-02-07T17:12:26.467Z,94026.16
2024-02-07T17:14:56.029Z,94024.75
2024-02-07T17:17:31.201Z,94017.72
2024-02-07T17:20:05.855Z,94032.75
2024-02-07T17:22:34.300Z,94038.38
2024-02-07T17:25:04.047Z,94021.34
2024-02-07T17:27:32.243Z,94033.19
2024-02-07T17:30:04.687Z,94020.34
2024-02-07T17:32:33.942Z,94022.34
2024-02-07T17:35:05.800Z,94019.94
2024-02-07T17:37:37.141Z,94021.53
2024-02-07T17:40:08.346Z,94025.97
2024-02-07T17:42:36.480Z,94022.34
2024-02-07T17:45:04.806Z,94023.56
2024-02-07T17:47:34.534Z,94028.38
2024-02-07T17:50:03.044Z,94014.13
2024-02-07T17:52:31.294Z,94028.38
2024-02-07T17:54:59.432Z,94026.78
2024-02-07T17:57:29.408Z,94033.38
2024-02-07T17:59:59.187Z,94029.16
2024-02-07T18:02:28.047Z,94029.56
2024-02-07T18:04:56.425Z,94023.53
2024-02-07T18:07:24.795Z,94028.34
2024-02-07T18:09:56.471Z,94033.34
2024-02-07T18:12:24.700Z,94031.97
2024-02-07T18:14:54.609Z,94027.56
2024-02-07T18:17:22.869Z,94030.78
2024-02-07T18:19:51.407Z,94030.78
2024-02-07T18:22:19.694Z,94033.78
2024-02-07T18:24:47.905Z,94033.97
2024-02-07T18:27:16.085Z,94028.75
2024-02-07T18:29:44.294Z,94028.34
2024-02-07T18:32:14.976Z,94021.72
2024-02-07T18:34:43.633Z,94035.59
2024-02-07T18:37:11.853Z,94028.34
2024-02-07T18:39:40.133Z,94025.53
2024-02-07T18:42:08.973Z,94024.75
2024-02-07T18:44:38.923Z,94016.09
2024-02-07T18:47:07.241Z,94029.34
2024-02-07T18:49:37.653Z,94029.94
2024-02-07T18:52:06.272Z,94030.91
2024-02-07T18:54:34.393Z,94029.50
2024-02-07T18:57:02.594Z,94037.13
2024-02-07T18:59:30.762Z,94042.97
2024-02-07T19:01:58.927Z,94036.91
2024-02-07T19:04:27.178Z,94039.50
2024-02-07T19:06:58.437Z,94050.31
2024-02-07T19:09:26.524Z,94048.72
2024-02-07T19:11:57.402Z,94050.50
2024-02-07T19:14:27.303Z,94039.47
2024-02-07T19:16:56.520Z,94044.66
2024-02-07T19:19:25.677Z,94036.16
2024-02-07T19:21:53.964Z,94040.59
2024-02-07T19:24:23.883Z,94038.75
2024-02-07T19:26:52.102Z,94045.16
2024-02-07T19:29:24.325Z,94038.16
2024-02-07T19:31:52.550Z,94039.34
2024-02-07T19:34:21.007Z,94042.25
2024-02-07T19:36:49.533Z,94038.81
2024-02-07T19:39:17.836Z,94044.84
2024-02-07T19:41:47.492Z,94033.63
2024-02-07T19:44:15.703Z,94052.88
2024-02-07T19:46:43.963Z,94044.44
2024-02-07T19:49:12.779Z,94044.66
2024-02-07T19:51:40.954Z,94045.22
2024-02-07T19:54:09.258Z,94037.97
2024-02-07T19:56:37.746Z,94027.56
2024-02-07T19:59:07.362Z,94035.56
2024-02-07T20:01:35.570Z,94032.78
2024-02-07T20:04:03.915Z,94026.94
2024-02-07T20:06:32.225Z,94029.75
2024-02-07T20:09:00.455Z,94022.13
2024-02-07T20:11:29.086Z,94025.75
2024-02-07T20:13:57.281Z,94021.53
2024-02-07T20:16:38.220Z,94024.53
2024-02-07T20:19:08.419Z,94027.94
2024-02-07T20:21:37.506Z,94025.75
2024-02-07T20:24:06.280Z,94028.19
2024-02-07T20:26:34.446Z,94023.16
2024-02-07T20:29:02.764Z,94019.75
2024-02-07T20:31:32.397Z,94028.56
2024-02-07T20:34:01.062Z,94034.75
2024-02-07T20:36:30.157Z,94028.56
2024-02-07T20:39:05.535Z,94025.75
2024-02-07T20:41:41.357Z,94025.53
2024-02-07T20:44:11.060Z,94028.91
2024-02-07T20:46:56.934Z,94021.31
2024-02-07T20:49:30.977Z,94015.25
2024-02-07T20:51:59.429Z,94012.84
2024-02-07T20:54:27.598Z,94009.41
2024-02-07T20:56:56.978Z,94008.59
2024-02-07T20:59:25.505Z,94007.97
2024-02-07T21:01:55.071Z,94004.94
2024-02-07T21:04:23.507Z,93998.94
2024-02-07T21:06:52.006Z,94000.13
2024-02-07T21:09:21.357Z,94005.91
2024-02-07T21:11:49.871Z,94005.53
2024-02-07T21:14:18.116Z,94005.72
2024-02-07T21:16:46.341Z,94015.31
2024-02-07T21:19:16.039Z,94002.66
2024-02-07T21:21:44.424Z,94009.69
2024-02-07T21:24:12.628Z,94009.91
2024-02-07T21:26:40.733Z,94012.91
2024-02-07T21:29:08.893Z,94007.28
2024-02-07T21:31:37.329Z,94000.69
2024-02-07T21:34:05.592Z,94002.28
2024-02-07T21:36:35.560Z,93998.28
2024-02-07T21:39:04.043Z,93998.28
2024-02-07T21:41:32.741Z,94009.50
2024-02-07T21:44:01.314Z,94004.88
2024-02-07T21:46:29.729Z,93996.66
2024-02-07T21:48:58.065Z,94004.50
2024-02-07T21:51:26.475Z,94016.06
2024-02-07T21:53:56.079Z,94018.75
2024-02-07T21:56:24.278Z,94017.06
2024-02-07T21:58:52.489Z,94025.41
2024-02-07T22:01:20.835Z,94031.31
2024-02-07T22:03:49.054Z,94025.06
2024-02-07T22:06:17.449Z,94037.00
2024-02-07T22:08:45.651Z,94035.16
2024-02-07T22:11:15.390Z,94038.94
2024-02-07T22:13:43.919Z,94037.69
2024-02-07T22:16:12.466Z,94040.38
2024-02-07T22:18:41.646Z,94039.03
2024-02-07T22:21:09.912Z,94047.41
2024-02-07T22:23:38.127Z,94043.75
2024-02-07T22:26:07.145Z,94047.88
2024-02-07T22:28:37.426Z,94047.63
2024-02-07T22:31:05.898Z,94051.13
2024-02-07T22:33:34.176Z,94046.81
2024-02-07T22:36:02.776Z,94046.56
2024-02-07T22:38:31.083Z,94040.66
2024-02-07T22:40:59.279Z,94047.66
2024-02-07T22:43:27.562Z,94037.72
2024-02-07T22:45:59.613Z,94046.47
2024-02-07T22:48:27.901Z,94047.19
2024-02-07T22:50:56.229Z,94048.81
2024-02-07T22:53:24.485Z,94047.66
2024-02-07T22:55:54.675Z,94042.38
2024-02-07T22:58:23.699Z,94052.91
2024-02-07T23:00:51.889Z,94047.56
2024-02-07T23:03:22.710Z,94057.84
2024-02-07T23:05:51.235Z,94052.66
2024-02-07T23:08:20.274Z,94055.06
2024-02-07T23:10:49.656Z,94055.50
2024-02-07T23:13:18.018Z,94056.13
2024-02-07T23:15:46.217Z,94061.22
2024-02-07T23:18:14.712Z,94057.19
2024-02-07T23:20:44.523Z,94058.81
2024-02-07T23:23:12.823Z,94051.16
2024-02-07T23:25:41.123Z,94062.06
2024-02-07T23:28:11.024Z,94050.47
2024-02-07T23:30:39.196Z,94050.63
2024-02-07T23:33:11.192Z,94037.94
2024-02-07T23:35:39.515Z,94051.06
2024-02-07T23:38:09.236Z,94040.59
2024-02-07T23:40:37.544Z,94046.25
2024-02-07T23:43:06.208Z,94040.63
2024-02-07T23:45:34.470Z,94039.66
2024-02-07T23:48:02.985Z,94038.09
2024-02-07T23:50:31.365Z,94043.78
2024-02-07T23:52:59.564Z,94038.75
2024-02-07T23:55:29.279Z,94045.47
2024-02-07T23:57:57.633Z,94035.88
